sensor_id;sensor_type;location;lat;lon;timestamp;P1;durP1;ratioP1;P2;durP2;ratioP2
57609;SDS011;43435;46.186;9.024;2023-02-01T11:08:21;1.00;;;0.50;;
57609;SDS011;43435;46.186;9.024;2023-02-01T11:10:46;3.40;;;1.35;;
57609;SDS011;43435;46.186;9.024;2023-02-01T11:13:15;3.47;;;2.03;;
57609;SDS011;43435;46.186;9.024;2023-02-01T11:15:44;5.88;;;2.30;;
57609;SDS011;43435;46.186;9.024;2023-02-01T11:18:18;4.97;;;2.67;;
57609;SDS011;43435;46.186;9.024;2023-02-01T11:20:43;2.92;;;1.80;;
57609;SDS011;43435;46.186;9.024;2023-02-01T11:23:16;3.55;;;1.77;;
57609;SDS011;43435;46.186;9.024;2023-02-01T11:25:52;5.05;;;2.20;;
57609;SDS011;43435;46.186;9.024;2023-02-01T11:28:18;3.78;;;1.85;;
57609;SDS011;43435;46.186;9.024;2023-02-01T11:30:45;2.83;;;0.85;;
57609;SDS011;43435;46.186;9.024;2023-02-01T11:33:18;0.38;;;0.30;;
57609;SDS011;43435;46.186;9.024;2023-02-01T11:35:44;2.72;;;0.70;;
57609;SDS011;43435;46.186;9.024;2023-02-01T11:38:32;0.93;;;0.38;;
57609;SDS011;43435;46.186;9.024;2023-02-01T11:41:10;0.77;;;0.40;;
57609;SDS011;43435;46.186;9.024;2023-02-01T11:43:36;0.65;;;0.35;;
57609;SDS011;43435;46.186;9.024;2023-02-01T11:46:02;0.53;;;0.40;;
57609;SDS011;43435;46.186;9.024;2023-02-01T11:48:29;0.75;;;0.30;;
57609;SDS011;43435;46.186;9.024;2023-02-01T20:44:24;1.30;;;0.70;;
57609;SDS011;43435;46.186;9.024;2023-02-01T20:46:49;0.95;;;0.45;;
57609;SDS011;43435;46.186;9.024;2023-02-01T20:49:14;1.30;;;0.50;;
57609;SDS011;43435;46.186;9.024;2023-02-01T20:51:40;2.20;;;0.97;;
57609;SDS011;43435;46.186;9.024;2023-02-01T20:54:05;1.63;;;0.50;;
57609;SDS011;43435;46.186;9.024;2023-02-01T20:56:30;3.27;;;1.33;;
57609;SDS011;43435;46.186;9.024;2023-02-01T20:58:55;0.75;;;0.60;;
57609;SDS011;43435;46.186;9.024;2023-02-01T21:01:27;1.92;;;0.73;;
57609;SDS011;43435;46.186;9.024;2023-02-01T21:03:52;1.60;;;1.00;;
57609;SDS011;43435;46.186;9.024;2023-02-01T21:06:17;2.03;;;0.80;;
57609;SDS011;43435;46.186;9.024;2023-02-01T21:08:42;1.23;;;0.63;;
57609;SDS011;43435;46.186;9.024;2023-02-01T21:11:08;1.40;;;0.73;;
57609;SDS011;43435;46.186;9.024;2023-02-01T21:13:36;0.77;;;0.40;;
57609;SDS011;43435;46.186;9.024;2023-02-01T21:16:06;1.23;;;0.88;;
57609;SDS011;43435;46.186;9.024;2023-02-01T21:55:38;0.30;;;0.22;;
57609;SDS011;43435;46.186;9.024;2023-02-01T21:58:03;2.83;;;0.50;;
57609;SDS011;43435;46.186;9.024;2023-02-01T22:00:36;1.35;;;0.50;;
57609;SDS011;43435;46.186;9.024;2023-02-01T22:03:01;0.70;;;0.40;;
57609;SDS011;43435;46.186;9.024;2023-02-01T22:05:26;0.73;;;0.50;;
57609;SDS011;43435;46.186;9.024;2023-02-01T22:07:53;1.20;;;0.45;;
57609;SDS011;43435;46.186;9.024;2023-02-01T22:10:19;0.40;;;0.30;;
57609;SDS011;43435;46.186;9.024;2023-02-01T22:12:44;0.20;;;0.20;;
57609;SDS011;43435;46.186;9.024;2023-02-01T22:15:09;0.37;;;0.30;;
57609;SDS011;43435;46.186;9.024;2023-02-01T22:17:34;1.48;;;0.35;;
57609;SDS011;43435;46.186;9.024;2023-02-01T22:20:00;0.60;;;0.40;;
57609;SDS011;43435;46.186;9.024;2023-02-01T22:22:25;0.73;;;0.50;;
57609;SDS011;43435;46.186;9.024;2023-02-01T22:24:50;1.03;;;0.40;;
57609;SDS011;43435;46.186;9.024;2023-02-01T22:27:18;0.43;;;0.30;;
57609;SDS011;43435;46.186;9.024;2023-02-01T22:29:43;0.32;;;0.22;;
57609;SDS011;43435;46.186;9.024;2023-02-01T22:32:08;3.33;;;0.40;;
